Ainsworth, Iowa
Current Conditions -  °F | °C
As of 10:15 AM on Sunday 21 Dec 2014 (Local Time) from KAWG Reporting Station
Overcast Overcast  
Wind Chill: 31°   Ceiling: 2000
Heat Index: 39°   Visibility: 9mi
Dew Point: 39°   Wind: 14mph
Humidity: 100%   Direction: 170°S
Pressure: 30.06"   Gusts: NA
Location:  41.29°N, 91.55°W
Report Text: KAWG 211615Z AUTO 17012KT 9SM OVC020 04/04 A3006 RMK AO2
Loading
Personal Weather Stations






























Interactive Weather Map New forecast layout! Learn more

10-Day Weather Forecast

Advertisements
Track Severe Weather on mobile